createdAt,value
2023-02-15T00:00:15.983Z,6.718248
2023-02-15T00:05:16.865Z,6.437143
2023-02-15T00:10:16.673Z,6.409353
2023-02-15T00:15:16.656Z,6.680292
2023-02-15T00:20:17.150Z,6.753237
2023-02-15T00:25:18.363Z,6.654015
2023-02-15T00:30:16.145Z,6.710145
2023-02-15T00:35:16.733Z,6.513768
2023-02-15T00:40:17.473Z,6.367376
2023-02-15T00:45:17.659Z,6.332374
2023-02-15T00:50:15.943Z,6.278873
2023-02-15T00:55:17.073Z,6.206944
2023-02-15T01:00:16.192Z,6.504196
2023-02-15T01:05:15.941Z,6.139716
2023-02-15T01:10:16.784Z,6.070423
2023-02-15T01:15:17.243Z,6.088811
2023-02-15T01:20:15.494Z,6.084615
2023-02-15T01:25:16.771Z,5.938298
2023-02-15T01:30:16.378Z,5.903497
2023-02-15T01:35:21.853Z,5.804965
2023-02-15T01:40:17.589Z,5.707092
2023-02-15T01:45:17.128Z,5.688028
2023-02-15T01:50:16.247Z,5.620423
2023-02-15T01:55:15.971Z,5.576761
2023-02-15T02:00:16.578Z,5.515603
2023-02-15T02:05:16.410Z,5.500000
2023-02-15T02:10:17.816Z,5.454225
2023-02-15T02:15:16.941Z,5.477857
2023-02-15T02:20:17.254Z,5.395714
2023-02-15T02:25:15.634Z,5.402174
2023-02-15T02:30:22.181Z,5.318841
2023-02-15T02:35:15.807Z,5.326241
2023-02-15T02:40:16.901Z,5.266667
2023-02-15T02:45:21.540Z,5.231206
2023-02-15T02:50:16.550Z,5.202113
2023-02-15T02:55:16.769Z,5.229371
2023-02-15T03:00:16.720Z,5.242958
2023-02-15T03:05:16.924Z,5.194366
2023-02-15T03:10:15.636Z,5.138028
2023-02-15T03:15:16.159Z,5.222378
2023-02-15T03:20:16.050Z,5.129787
2023-02-15T03:25:17.307Z,5.183803
2023-02-15T03:30:17.590Z,5.169718
2023-02-15T03:35:17.537Z,5.242361
2023-02-15T03:40:16.462Z,5.182759
2023-02-15T03:45:16.482Z,5.132414
2023-02-15T03:50:16.782Z,5.064138
2023-02-15T03:55:16.117Z,4.999310
2023-02-15T04:00:16.286Z,5.008904
2023-02-15T04:05:15.746Z,4.956250
2023-02-15T04:10:16.471Z,4.770629
2023-02-15T04:15:15.749Z,4.482069
2023-02-15T04:20:16.138Z,4.120833
2023-02-15T04:25:17.536Z,3.865035
2023-02-15T04:30:21.205Z,3.547917
2023-02-15T04:35:17.170Z,3.752817
2023-02-15T04:40:19.109Z,3.876389
2023-02-15T04:45:16.306Z,3.932639
2023-02-15T04:50:17.557Z,3.748951
2023-02-15T04:55:20.901Z,3.508333
2023-02-15T05:00:16.691Z,3.022917
2023-02-15T05:05:16.402Z,2.850350
2023-02-15T05:10:16.289Z,2.968750
2023-02-15T05:15:16.757Z,2.916783
2023-02-15T05:20:16.170Z,2.864583
2023-02-15T05:25:17.514Z,2.906944
2023-02-15T05:30:21.291Z,2.820280
2023-02-15T05:35:15.776Z,2.734965
2023-02-15T05:40:17.567Z,2.712587
2023-02-15T05:45:18.048Z,2.718182
2023-02-15T05:50:16.639Z,2.740559
2023-02-15T05:55:17.382Z,2.677622
2023-02-15T06:00:15.830Z,2.362500
2023-02-15T06:05:17.207Z,2.106250
2023-02-15T06:10:16.741Z,2.094483
2023-02-15T06:15:16.657Z,1.920833
2023-02-15T06:20:16.714Z,1.878472
2023-02-15T06:25:18.563Z,1.824476
2023-02-15T06:30:17.580Z,1.778014
2023-02-15T06:35:16.509Z,1.703472
2023-02-15T06:40:16.350Z,1.656250
2023-02-15T06:45:16.676Z,1.686014
2023-02-15T06:50:16.663Z,1.897222
2023-02-15T06:55:17.175Z,2.273427
2023-02-15T07:00:16.688Z,2.380420
2023-02-15T07:05:17.474Z,2.385106
2023-02-15T07:10:15.926Z,2.468276
2023-02-15T07:15:16.754Z,2.539583
2023-02-15T07:20:18.277Z,2.576389
2023-02-15T07:25:17.266Z,2.446154
2023-02-15T07:30:17.285Z,2.475000
2023-02-15T07:35:16.590Z,2.355556
2023-02-15T07:40:16.727Z,2.656552
2023-02-15T07:45:17.368Z,2.641096
2023-02-15T07:50:17.401Z,2.602055
2023-02-15T07:55:17.583Z,2.706803
2023-02-15T08:00:16.290Z,2.785135
2023-02-15T08:05:15.452Z,2.765306
2023-02-15T08:10:15.673Z,2.661486
2023-02-15T08:15:15.597Z,2.670748
2023-02-15T08:20:16.260Z,2.588591
2023-02-15T08:25:16.039Z,2.549664
2023-02-15T08:30:17.063Z,2.504730
2023-02-15T08:35:17.005Z,2.512838
2023-02-15T08:40:16.053Z,2.663087
2023-02-15T08:45:16.958Z,2.681081
2023-02-15T08:50:16.233Z,2.553333
2023-02-15T08:55:21.868Z,2.342282
2023-02-15T09:00:16.370Z,2.486577
2023-02-15T09:05:18.264Z,2.308725
2023-02-15T09:10:16.108Z,2.155705
2023-02-15T09:15:17.226Z,2.127891
2023-02-15T09:20:16.276Z,2.122449
2023-02-15T09:25:16.133Z,2.029452
2023-02-15T09:30:17.464Z,1.932432
2023-02-15T09:35:15.733Z,1.900000
2023-02-15T09:40:16.361Z,1.922297
2023-02-15T09:45:19.323Z,1.811724
2023-02-15T09:50:16.319Z,1.409589
2023-02-15T09:55:16.227Z,1.341781
2023-02-15T10:00:17.313Z,1.625850
2023-02-15T10:05:16.477Z,1.738514
2023-02-15T10:10:16.816Z,1.876190
2023-02-15T10:15:16.666Z,1.828378
2023-02-15T10:20:17.660Z,1.670748
2023-02-15T10:25:15.525Z,1.836301
2023-02-15T10:30:16.141Z,1.600000
2023-02-15T10:35:16.920Z,1.584564
2023-02-15T10:40:16.473Z,1.475839
2023-02-15T10:45:17.029Z,1.297315
2023-02-15T10:50:17.285Z,1.304000
2023-02-15T10:55:18.812Z,1.363087
2023-02-15T11:00:21.359Z,1.391946
2023-02-15T11:05:15.688Z,1.471812
2023-02-15T11:10:18.411Z,1.503356
2023-02-15T11:15:15.548Z,1.633108
2023-02-15T11:20:19.133Z,1.634014
2023-02-15T11:25:17.185Z,1.623448
2023-02-15T11:30:16.953Z,1.542361
2023-02-15T11:35:16.075Z,1.497902
2023-02-15T11:40:16.615Z,1.523448
2023-02-15T11:45:15.609Z,1.498601
2023-02-15T11:50:16.570Z,1.479861
2023-02-15T11:55:17.541Z,1.573611
2023-02-15T12:00:17.468Z,1.714085
2023-02-15T12:05:16.203Z,1.688028
2023-02-15T12:10:18.659Z,1.657343
2023-02-15T12:15:16.648Z,1.504930
2023-02-15T12:20:15.694Z,1.489437
2023-02-15T12:25:17.639Z,1.584615
2023-02-15T12:30:17.275Z,1.661972
2023-02-15T12:35:19.498Z,1.586429
2023-02-15T12:40:16.262Z,1.493662
2023-02-15T12:45:19.418Z,1.427778
2023-02-15T12:50:19.327Z,1.356164
2023-02-15T12:55:16.242Z,1.374483
2023-02-15T13:00:16.840Z,1.393289
2023-02-15T13:05:16.458Z,1.400000
2023-02-15T13:10:16.304Z,1.637241
2023-02-15T13:15:18.778Z,1.621918
2023-02-15T13:20:16.898Z,1.704167
2023-02-15T13:25:22.327Z,1.638889
2023-02-15T13:30:18.371Z,1.534965
2023-02-15T13:35:18.582Z,1.452740
2023-02-15T13:40:16.938Z,1.459184
2023-02-15T13:45:18.755Z,1.455782
2023-02-15T13:50:16.573Z,1.417241
2023-02-15T13:55:17.170Z,1.373973
2023-02-15T14:00:15.998Z,1.317687
2023-02-15T14:05:23.511Z,1.399315
2023-02-15T14:10:15.839Z,1.391724
2023-02-15T14:15:16.720Z,1.313793
2023-02-15T14:20:16.932Z,1.324658
2023-02-15T14:25:20.558Z,1.346575
2023-02-15T14:30:15.795Z,1.362500
2023-02-15T14:35:17.029Z,1.373793
2023-02-15T14:40:18.046Z,1.313889
2023-02-15T14:45:18.148Z,1.351034
2023-02-15T14:50:16.304Z,1.354483
2023-02-15T14:55:22.393Z,1.423448
2023-02-15T15:00:17.608Z,1.393878
2023-02-15T15:05:16.811Z,1.403401
2023-02-15T15:10:16.441Z,1.371429
2023-02-15T15:15:16.898Z,1.398639
2023-02-15T15:20:15.891Z,1.382192
2023-02-15T15:25:17.207Z,1.396575
2023-02-15T15:30:19.171Z,1.402055
2023-02-15T15:35:16.214Z,1.455944
2023-02-15T15:40:21.522Z,1.442958
2023-02-15T15:45:16.053Z,1.580986
2023-02-15T15:50:15.728Z,1.690780
2023-02-15T15:55:18.954Z,1.799286
2023-02-15T16:00:17.920Z,1.802837
2023-02-15T16:05:15.785Z,1.814894
2023-02-15T16:10:16.132Z,1.892199
2023-02-15T16:15:16.825Z,1.928369
2023-02-15T16:20:15.500Z,1.971831
2023-02-15T16:25:16.944Z,2.348252
2023-02-15T16:30:15.710Z,2.748611
2023-02-15T16:35:15.572Z,2.778014
2023-02-15T16:40:15.883Z,2.461379
2023-02-15T16:45:16.503Z,2.352055
2023-02-15T16:50:17.034Z,2.481119
2023-02-15T16:55:16.815Z,2.590210
2023-02-15T17:00:17.021Z,2.947857
2023-02-15T17:05:16.330Z,3.087050
2023-02-15T17:10:17.976Z,3.120000
2023-02-15T17:15:16.285Z,3.387050
2023-02-15T17:20:16.524Z,3.557971
2023-02-15T17:25:15.787Z,3.864706
2023-02-15T17:30:20.247Z,4.389051
2023-02-15T17:35:17.328Z,4.610949
2023-02-15T17:40:16.264Z,4.800000
2023-02-15T17:45:18.581Z,4.400719
2023-02-15T17:50:16.529Z,4.647445
2023-02-15T17:55:15.813Z,4.633094
2023-02-15T18:00:15.811Z,4.997101
2023-02-15T18:05:16.233Z,5.379286
2023-02-15T18:10:15.793Z,5.231915
2023-02-15T18:15:15.752Z,4.472340
2023-02-15T18:20:17.386Z,4.733803
2023-02-15T18:25:17.036Z,4.295105
2023-02-15T18:30:16.706Z,4.407692
2023-02-15T18:35:16.101Z,4.707692
2023-02-15T18:40:16.469Z,4.636620
2023-02-15T18:45:16.383Z,4.736364
2023-02-15T18:50:21.052Z,5.341135
2023-02-15T18:55:16.327Z,5.387857
2023-02-15T19:00:16.560Z,5.112143
2023-02-15T19:05:15.834Z,5.276429
2023-02-15T19:10:15.720Z,5.414184
2023-02-15T19:15:16.598Z,5.582979
2023-02-15T19:20:17.175Z,5.559574
2023-02-15T19:25:16.172Z,5.743972
2023-02-15T19:30:16.794Z,5.740845
2023-02-15T19:35:16.980Z,6.035664
2023-02-15T19:40:18.320Z,6.125175
2023-02-15T19:45:16.985Z,6.321277
2023-02-15T19:50:17.416Z,6.382979
2023-02-15T19:55:16.451Z,6.299291
2023-02-15T20:00:21.919Z,6.678014
2023-02-15T20:05:16.882Z,6.577622
2023-02-15T20:10:17.490Z,6.611888
2023-02-15T20:15:16.230Z,6.586806
2023-02-15T20:20:16.916Z,6.672222
2023-02-15T20:25:17.038Z,6.602098
2023-02-15T20:30:15.744Z,6.638028
2023-02-15T20:35:16.815Z,6.727972
2023-02-15T20:40:15.995Z,6.817021
2023-02-15T20:45:15.903Z,7.093617
2023-02-15T20:50:17.146Z,7.690141
2023-02-15T20:55:16.112Z,7.458865
2023-02-15T21:00:16.396Z,7.731915
2023-02-15T21:05:17.347Z,7.926573
2023-02-15T21:10:17.504Z,7.603521
2023-02-15T21:15:18.012Z,7.646853
2023-02-15T21:20:22.138Z,7.872222
2023-02-15T21:25:17.043Z,7.906250
2023-02-15T21:30:18.371Z,8.077698
2023-02-15T21:35:18.408Z,7.882857
2023-02-15T21:40:16.451Z,7.538849
2023-02-15T21:45:17.110Z,8.080986
2023-02-15T21:50:16.149Z,8.339286
2023-02-15T21:55:16.438Z,8.155000
2023-02-15T22:00:17.152Z,7.802174
2023-02-15T22:05:17.190Z,7.760284
2023-02-15T22:10:17.184Z,7.422857
2023-02-15T22:15:15.816Z,7.642254
2023-02-15T22:20:16.575Z,7.362143
2023-02-15T22:25:16.450Z,7.453901
2023-02-15T22:30:16.936Z,7.549650
2023-02-15T22:35:16.564Z,7.423404
2023-02-15T22:40:15.800Z,7.670213
2023-02-15T22:45:16.617Z,7.620567
2023-02-15T22:50:16.802Z,7.816429
2023-02-15T22:55:16.458Z,8.184138
2023-02-15T23:00:16.653Z,8.270548
2023-02-15T23:05:16.322Z,7.904861
2023-02-15T23:10:16.666Z,8.092958
2023-02-15T23:15:17.291Z,8.198571
2023-02-15T23:20:16.892Z,8.455797
2023-02-15T23:25:16.249Z,8.228571
2023-02-15T23:30:21.506Z,7.867626
2023-02-15T23:35:20.118Z,7.994161
2023-02-15T23:40:16.335Z,8.329286
2023-02-15T23:45:16.410Z,7.987324
2023-02-15T23:50:17.861Z,8.005755
2023-02-15T23:55:16.700Z,8.218571
